sensor_id;sensor_type;location;lat;lon;timestamp;temperature;humidity
77039;DHT22;65970;50.476;4.840;2022-12-13T00:02:28;-0.30;76.50
77039;DHT22;65970;50.476;4.840;2022-12-13T00:07:29;-0.40;77.30
77039;DHT22;65970;50.476;4.840;2022-12-13T00:12:30;-0.50;76.90
77039;DHT22;65970;50.476;4.840;2022-12-13T00:17:31;-0.60;79.10
77039;DHT22;65970;50.476;4.840;2022-12-13T00:22:32;-0.60;76.40
77039;DHT22;65970;50.476;4.840;2022-12-13T00:27:32;-0.50;77.70
77039;DHT22;65970;50.476;4.840;2022-12-13T00:32:33;-0.70;77.50
77039;DHT22;65970;50.476;4.840;2022-12-13T00:37:33;-0.70;77.60
77039;DHT22;65970;50.476;4.840;2022-12-13T00:42:34;-0.70;77.10
77039;DHT22;65970;50.476;4.840;2022-12-13T00:47:35;-0.70;76.40
77039;DHT22;65970;50.476;4.840;2022-12-13T00:52:36;-0.70;76.10
77039;DHT22;65970;50.476;4.840;2022-12-13T00:57:36;-0.60;74.60
77039;DHT22;65970;50.476;4.840;2022-12-13T01:02:37;-0.60;74.50
77039;DHT22;65970;50.476;4.840;2022-12-13T01:07:38;-0.60;74.20
77039;DHT22;65970;50.476;4.840;2022-12-13T01:12:39;-0.70;74.50
77039;DHT22;65970;50.476;4.840;2022-12-13T01:17:39;-0.60;74.10
77039;DHT22;65970;50.476;4.840;2022-12-13T01:22:40;-0.70;74.90
77039;DHT22;65970;50.476;4.840;2022-12-13T01:27:40;-0.70;74.30
77039;DHT22;65970;50.476;4.840;2022-12-13T01:32:41;-0.70;74.70
77039;DHT22;65970;50.476;4.840;2022-12-13T01:37:41;-0.70;74.30
77039;DHT22;65970;50.476;4.840;2022-12-13T01:42:42;-0.80;73.80
77039;DHT22;65970;50.476;4.840;2022-12-13T01:47:46;-0.70;74.00
77039;DHT22;65970;50.476;4.840;2022-12-13T01:52:47;-0.70;73.50
77039;DHT22;65970;50.476;4.840;2022-12-13T01:57:49;-0.80;73.40
77039;DHT22;65970;50.476;4.840;2022-12-13T02:02:52;-0.80;73.30
77039;DHT22;65970;50.476;4.840;2022-12-13T02:07:54;-0.90;74.20
77039;DHT22;65970;50.476;4.840;2022-12-13T02:12:56;-1.00;74.20
77039;DHT22;65970;50.476;4.840;2022-12-13T02:18:15;-1.00;73.60
77039;DHT22;65970;50.476;4.840;2022-12-13T02:34:17;-1.00;73.70
77039;DHT22;65970;50.476;4.840;2022-12-13T02:39:24;-1.10;74.00
77039;DHT22;65970;50.476;4.840;2022-12-13T02:44:42;-1.00;72.70
77039;DHT22;65970;50.476;4.840;2022-12-13T02:49:48;-1.00;73.40
77039;DHT22;65970;50.476;4.840;2022-12-13T02:54:49;-1.00;73.30
77039;DHT22;65970;50.476;4.840;2022-12-13T02:59:50;-1.00;72.90
77039;DHT22;65970;50.476;4.840;2022-12-13T03:10:05;-1.00;76.40
77039;DHT22;65970;50.476;4.840;2022-12-13T03:15:28;-1.10;75.80
77039;DHT22;65970;50.476;4.840;2022-12-13T03:20:30;-1.40;77.50
77039;DHT22;65970;50.476;4.840;2022-12-13T03:25:31;-1.40;76.70
77039;DHT22;65970;50.476;4.840;2022-12-13T03:30:32;-1.50;78.10
77039;DHT22;65970;50.476;4.840;2022-12-13T03:35:33;-1.60;77.70
77039;DHT22;65970;50.476;4.840;2022-12-13T03:40:34;-1.50;77.00
77039;DHT22;65970;50.476;4.840;2022-12-13T03:45:35;-1.40;76.50
77039;DHT22;65970;50.476;4.840;2022-12-13T03:50:35;-1.40;75.90
77039;DHT22;65970;50.476;4.840;2022-12-13T03:55:36;-1.40;75.60
77039;DHT22;65970;50.476;4.840;2022-12-13T04:00:36;-1.40;76.00
77039;DHT22;65970;50.476;4.840;2022-12-13T04:05:37;-1.20;74.20
77039;DHT22;65970;50.476;4.840;2022-12-13T04:10:38;-1.30;73.80
77039;DHT22;65970;50.476;4.840;2022-12-13T04:15:39;-1.30;74.20
77039;DHT22;65970;50.476;4.840;2022-12-13T04:20:40;-1.20;76.20
77039;DHT22;65970;50.476;4.840;2022-12-13T04:25:41;-1.40;76.30
77039;DHT22;65970;50.476;4.840;2022-12-13T04:30:42;-1.50;76.40
77039;DHT22;65970;50.476;4.840;2022-12-13T04:35:42;-1.50;76.00
77039;DHT22;65970;50.476;4.840;2022-12-13T04:40:43;-1.40;76.80
77039;DHT22;65970;50.476;4.840;2022-12-13T04:45:43;-1.50;75.20
77039;DHT22;65970;50.476;4.840;2022-12-13T04:50:44;-1.60;76.60
77039;DHT22;65970;50.476;4.840;2022-12-13T04:55:44;-1.70;76.80
77039;DHT22;65970;50.476;4.840;2022-12-13T05:00:45;-1.60;76.90
77039;DHT22;65970;50.476;4.840;2022-12-13T05:05:45;-1.60;76.50
77039;DHT22;65970;50.476;4.840;2022-12-13T05:10:46;-1.50;76.70
77039;DHT22;65970;50.476;4.840;2022-12-13T05:15:54;-1.60;76.00
77039;DHT22;65970;50.476;4.840;2022-12-13T05:20:54;-1.60;75.30
77039;DHT22;65970;50.476;4.840;2022-12-13T05:25:55;-1.50;75.70
77039;DHT22;65970;50.476;4.840;2022-12-13T05:30:59;-1.50;75.20
77039;DHT22;65970;50.476;4.840;2022-12-13T05:36:04;-1.60;75.30
77039;DHT22;65970;50.476;4.840;2022-12-13T05:41:05;-1.60;75.90
77039;DHT22;65970;50.476;4.840;2022-12-13T05:46:06;-1.60;75.10
77039;DHT22;65970;50.476;4.840;2022-12-13T05:51:07;-1.50;74.60
77039;DHT22;65970;50.476;4.840;2022-12-13T05:56:09;-1.50;74.20
77039;DHT22;65970;50.476;4.840;2022-12-13T06:01:12;-1.40;72.90
77039;DHT22;65970;50.476;4.840;2022-12-13T06:06:13;-1.50;73.60
77039;DHT22;65970;50.476;4.840;2022-12-13T06:11:13;-1.50;73.60
77039;DHT22;65970;50.476;4.840;2022-12-13T06:16:14;-1.50;72.60
77039;DHT22;65970;50.476;4.840;2022-12-13T06:21:14;-1.40;72.60
77039;DHT22;65970;50.476;4.840;2022-12-13T06:26:15;-1.40;72.40
77039;DHT22;65970;50.476;4.840;2022-12-13T06:31:15;-1.40;72.60
77039;DHT22;65970;50.476;4.840;2022-12-13T06:36:16;-1.40;71.60
77039;DHT22;65970;50.476;4.840;2022-12-13T06:41:16;-1.50;71.60
77039;DHT22;65970;50.476;4.840;2022-12-13T06:46:18;-1.50;71.40
77039;DHT22;65970;50.476;4.840;2022-12-13T06:51:19;-1.50;72.00
77039;DHT22;65970;50.476;4.840;2022-12-13T06:56:19;-1.50;71.30
77039;DHT22;65970;50.476;4.840;2022-12-13T07:01:20;-1.50;70.90
77039;DHT22;65970;50.476;4.840;2022-12-13T07:06:22;-1.60;71.90
77039;DHT22;65970;50.476;4.840;2022-12-13T07:11:29;-1.50;71.60
77039;DHT22;65970;50.476;4.840;2022-12-13T07:16:30;-1.60;70.90
77039;DHT22;65970;50.476;4.840;2022-12-13T07:21:30;-1.80;71.60
77039;DHT22;65970;50.476;4.840;2022-12-13T07:26:31;-1.90;71.40
77039;DHT22;65970;50.476;4.840;2022-12-13T07:31:34;-1.90;72.50
77039;DHT22;65970;50.476;4.840;2022-12-13T07:36:35;-2.00;70.90
77039;DHT22;65970;50.476;4.840;2022-12-13T07:41:35;-2.00;74.40
77039;DHT22;65970;50.476;4.840;2022-12-13T07:46:36;-2.10;71.90
77039;DHT22;65970;50.476;4.840;2022-12-13T07:51:36;-2.00;71.40
77039;DHT22;65970;50.476;4.840;2022-12-13T07:56:37;-2.10;71.80
77039;DHT22;65970;50.476;4.840;2022-12-13T08:01:37;-2.10;70.80
77039;DHT22;65970;50.476;4.840;2022-12-13T08:06:38;-2.10;71.10
77039;DHT22;65970;50.476;4.840;2022-12-13T08:11:41;-2.10;72.40
77039;DHT22;65970;50.476;4.840;2022-12-13T08:16:41;-2.10;72.30
77039;DHT22;65970;50.476;4.840;2022-12-13T08:21:42;-2.10;71.80
77039;DHT22;65970;50.476;4.840;2022-12-13T08:26:51;-2.10;72.60
77039;DHT22;65970;50.476;4.840;2022-12-13T08:31:52;-2.10;72.80
77039;DHT22;65970;50.476;4.840;2022-12-13T08:42:13;-2.00;74.30
77039;DHT22;65970;50.476;4.840;2022-12-13T08:52:38;-1.80;74.50
77039;DHT22;65970;50.476;4.840;2022-12-13T08:57:42;-1.70;74.80
77039;DHT22;65970;50.476;4.840;2022-12-13T09:02:44;-1.70;75.40
77039;DHT22;65970;50.476;4.840;2022-12-13T09:12:56;-1.60;75.80
77039;DHT22;65970;50.476;4.840;2022-12-13T09:17:57;-1.50;78.00
77039;DHT22;65970;50.476;4.840;2022-12-13T09:23:01;-1.40;80.00
77039;DHT22;65970;50.476;4.840;2022-12-13T09:28:02;-1.40;79.90
77039;DHT22;65970;50.476;4.840;2022-12-13T09:33:03;-1.30;80.10
77039;DHT22;65970;50.476;4.840;2022-12-13T09:38:03;-1.30;80.50
77039;DHT22;65970;50.476;4.840;2022-12-13T09:43:04;-1.20;81.00
77039;DHT22;65970;50.476;4.840;2022-12-13T09:48:05;-1.00;82.70
77039;DHT22;65970;50.476;4.840;2022-12-13T09:53:06;-0.90;83.10
77039;DHT22;65970;50.476;4.840;2022-12-13T09:58:29;-0.70;82.60
77039;DHT22;65970;50.476;4.840;2022-12-13T10:03:30;-0.50;81.90
77039;DHT22;65970;50.476;4.840;2022-12-13T10:08:52;-0.40;81.30
77039;DHT22;65970;50.476;4.840;2022-12-13T10:14:11;-0.40;79.00
77039;DHT22;65970;50.476;4.840;2022-12-13T10:19:22;-0.30;79.00
77039;DHT22;65970;50.476;4.840;2022-12-13T10:24:26;-0.20;78.70
77039;DHT22;65970;50.476;4.840;2022-12-13T10:29:26;-0.10;76.80
77039;DHT22;65970;50.476;4.840;2022-12-13T10:34:29;0.00;78.40
77039;DHT22;65970;50.476;4.840;2022-12-13T10:39:40;0.10;79.30
77039;DHT22;65970;50.476;4.840;2022-12-13T10:44:41;0.20;76.70
77039;DHT22;65970;50.476;4.840;2022-12-13T10:49:51;0.30;75.60
77039;DHT22;65970;50.476;4.840;2022-12-13T10:54:53;0.40;76.00
77039;DHT22;65970;50.476;4.840;2022-12-13T10:59:54;0.50;74.40
77039;DHT22;65970;50.476;4.840;2022-12-13T11:04:55;0.70;76.80
77039;DHT22;65970;50.476;4.840;2022-12-13T11:09:57;0.80;75.20
77039;DHT22;65970;50.476;4.840;2022-12-13T11:15:00;1.00;75.90
77039;DHT22;65970;50.476;4.840;2022-12-13T11:20:06;1.00;72.60
77039;DHT22;65970;50.476;4.840;2022-12-13T11:25:22;1.20;73.70
77039;DHT22;65970;50.476;4.840;2022-12-13T11:30:55;1.40;73.20
77039;DHT22;65970;50.476;4.840;2022-12-13T11:41:16;1.70;70.80
77039;DHT22;65970;50.476;4.840;2022-12-13T11:46:20;1.90;69.90
77039;DHT22;65970;50.476;4.840;2022-12-13T11:51:30;2.20;70.40
77039;DHT22;65970;50.476;4.840;2022-12-13T11:56:36;2.40;70.60
77039;DHT22;65970;50.476;4.840;2022-12-13T12:12:11;3.10;63.00
77039;DHT22;65970;50.476;4.840;2022-12-13T12:17:20;3.30;59.80
77039;DHT22;65970;50.476;4.840;2022-12-13T12:22:42;3.40;58.20
77039;DHT22;65970;50.476;4.840;2022-12-13T12:43:42;3.20;54.00
77039;DHT22;65970;50.476;4.840;2022-12-13T12:54:19;3.10;51.80
77039;DHT22;65970;50.476;4.840;2022-12-13T12:59:48;3.10;52.20
77039;DHT22;65970;50.476;4.840;2022-12-13T13:05:00;3.10;50.80
77039;DHT22;65970;50.476;4.840;2022-12-13T13:10:04;3.00;51.00
77039;DHT22;65970;50.476;4.840;2022-12-13T13:20:30;3.00;55.50
77039;DHT22;65970;50.476;4.840;2022-12-13T13:25:32;3.10;55.50
77039;DHT22;65970;50.476;4.840;2022-12-13T13:30:33;3.00;55.10
77039;DHT22;65970;50.476;4.840;2022-12-13T13:40:36;2.90;54.90
77039;DHT22;65970;50.476;4.840;2022-12-13T14:32:57;2.60;57.30
77039;DHT22;65970;50.476;4.840;2022-12-13T14:38:05;2.60;56.90
77039;DHT22;65970;50.476;4.840;2022-12-13T14:43:22;2.60;57.50
77039;DHT22;65970;50.476;4.840;2022-12-13T14:48:24;2.50;59.30
77039;DHT22;65970;50.476;4.840;2022-12-13T14:53:33;2.50;60.40
77039;DHT22;65970;50.476;4.840;2022-12-13T14:58:34;2.50;61.80
77039;DHT22;65970;50.476;4.840;2022-12-13T15:03:35;2.50;61.50
77039;DHT22;65970;50.476;4.840;2022-12-13T15:08:36;2.40;61.60
77039;DHT22;65970;50.476;4.840;2022-12-13T15:13:40;2.40;59.30
77039;DHT22;65970;50.476;4.840;2022-12-13T15:18:41;2.30;61.00
77039;DHT22;65970;50.476;4.840;2022-12-13T15:23:42;2.30;59.50
77039;DHT22;65970;50.476;4.840;2022-12-13T15:28:45;2.30;61.70
77039;DHT22;65970;50.476;4.840;2022-12-13T15:33:46;2.20;58.80
77039;DHT22;65970;50.476;4.840;2022-12-13T15:39:04;2.10;61.10
77039;DHT22;65970;50.476;4.840;2022-12-13T15:44:24;2.10;61.00
77039;DHT22;65970;50.476;4.840;2022-12-13T15:50:03;2.00;62.50
77039;DHT22;65970;50.476;4.840;2022-12-13T16:00:26;1.90;61.60
77039;DHT22;65970;50.476;4.840;2022-12-13T16:05:32;1.90;62.30
77039;DHT22;65970;50.476;4.840;2022-12-13T16:10:33;2.00;64.10
77039;DHT22;65970;50.476;4.840;2022-12-13T16:15:51;1.90;64.30
77039;DHT22;65970;50.476;4.840;2022-12-13T16:20:53;1.80;65.00
77039;DHT22;65970;50.476;4.840;2022-12-13T16:25:53;1.80;63.80
77039;DHT22;65970;50.476;4.840;2022-12-13T16:31:08;1.70;64.70
77039;DHT22;65970;50.476;4.840;2022-12-13T16:36:11;1.80;69.60
77039;DHT22;65970;50.476;4.840;2022-12-13T16:41:12;1.80;69.10
77039;DHT22;65970;50.476;4.840;2022-12-13T16:46:13;1.70;68.70
77039;DHT22;65970;50.476;4.840;2022-12-13T16:51:13;1.70;69.40
77039;DHT22;65970;50.476;4.840;2022-12-13T16:56:14;1.70;69.40
77039;DHT22;65970;50.476;4.840;2022-12-13T17:01:18;1.70;69.20
77039;DHT22;65970;50.476;4.840;2022-12-13T17:06:22;1.60;68.00
77039;DHT22;65970;50.476;4.840;2022-12-13T17:11:23;1.70;67.40
77039;DHT22;65970;50.476;4.840;2022-12-13T17:16:23;1.70;68.70
77039;DHT22;65970;50.476;4.840;2022-12-13T17:21:25;1.70;68.80
77039;DHT22;65970;50.476;4.840;2022-12-13T17:26:26;1.70;69.00
77039;DHT22;65970;50.476;4.840;2022-12-13T17:31:28;1.70;66.90
77039;DHT22;65970;50.476;4.840;2022-12-13T17:36:29;1.70;65.20
77039;DHT22;65970;50.476;4.840;2022-12-13T17:41:29;1.70;64.30
77039;DHT22;65970;50.476;4.840;2022-12-13T17:46:30;1.70;66.80
77039;DHT22;65970;50.476;4.840;2022-12-13T17:51:30;1.70;63.60
77039;DHT22;65970;50.476;4.840;2022-12-13T17:56:31;1.70;64.50
77039;DHT22;65970;50.476;4.840;2022-12-13T18:01:31;1.70;65.00
77039;DHT22;65970;50.476;4.840;2022-12-13T18:06:32;1.70;62.90
77039;DHT22;65970;50.476;4.840;2022-12-13T18:11:32;1.60;61.90
77039;DHT22;65970;50.476;4.840;2022-12-13T18:16:33;1.70;61.10
77039;DHT22;65970;50.476;4.840;2022-12-13T18:21:34;1.60;61.40
77039;DHT22;65970;50.476;4.840;2022-12-13T18:26:34;1.60;61.10
77039;DHT22;65970;50.476;4.840;2022-12-13T18:31:35;1.60;61.00
77039;DHT22;65970;50.476;4.840;2022-12-13T18:36:36;1.60;61.50
77039;DHT22;65970;50.476;4.840;2022-12-13T18:41:36;1.50;59.90
77039;DHT22;65970;50.476;4.840;2022-12-13T18:46:37;1.50;59.90
77039;DHT22;65970;50.476;4.840;2022-12-13T18:51:38;1.40;59.30
77039;DHT22;65970;50.476;4.840;2022-12-13T18:56:38;1.40;59.40
77039;DHT22;65970;50.476;4.840;2022-12-13T19:01:39;1.40;59.40
77039;DHT22;65970;50.476;4.840;2022-12-13T19:06:39;1.40;60.90
77039;DHT22;65970;50.476;4.840;2022-12-13T19:11:40;1.40;61.00
77039;DHT22;65970;50.476;4.840;2022-12-13T19:16:41;1.40;62.30
77039;DHT22;65970;50.476;4.840;2022-12-13T19:21:41;1.50;60.40
77039;DHT22;65970;50.476;4.840;2022-12-13T19:26:42;1.50;61.40
77039;DHT22;65970;50.476;4.840;2022-12-13T19:31:42;1.40;61.10
77039;DHT22;65970;50.476;4.840;2022-12-13T19:36:43;1.40;61.50
77039;DHT22;65970;50.476;4.840;2022-12-13T19:41:43;1.50;61.00
77039;DHT22;65970;50.476;4.840;2022-12-13T19:46:44;1.40;59.70
77039;DHT22;65970;50.476;4.840;2022-12-13T19:51:44;1.40;60.90
77039;DHT22;65970;50.476;4.840;2022-12-13T19:56:45;1.40;61.30
77039;DHT22;65970;50.476;4.840;2022-12-13T20:01:46;1.40;62.00
77039;DHT22;65970;50.476;4.840;2022-12-13T20:06:46;1.30;60.40
77039;DHT22;65970;50.476;4.840;2022-12-13T20:11:47;1.30;60.10
77039;DHT22;65970;50.476;4.840;2022-12-13T20:16:47;1.20;58.90
77039;DHT22;65970;50.476;4.840;2022-12-13T20:21:48;1.10;57.20
77039;DHT22;65970;50.476;4.840;2022-12-13T20:26:48;1.10;57.70
77039;DHT22;65970;50.476;4.840;2022-12-13T20:31:49;1.10;57.20
77039;DHT22;65970;50.476;4.840;2022-12-13T20:36:50;1.10;58.20
77039;DHT22;65970;50.476;4.840;2022-12-13T20:41:50;1.10;57.50
77039;DHT22;65970;50.476;4.840;2022-12-13T20:46:51;1.00;57.50
77039;DHT22;65970;50.476;4.840;2022-12-13T20:51:51;1.00;58.90
77039;DHT22;65970;50.476;4.840;2022-12-13T20:56:52;1.10;58.80
77039;DHT22;65970;50.476;4.840;2022-12-13T21:01:53;1.00;57.90
77039;DHT22;65970;50.476;4.840;2022-12-13T21:06:53;1.00;58.90
77039;DHT22;65970;50.476;4.840;2022-12-13T21:11:54;1.00;58.70
77039;DHT22;65970;50.476;4.840;2022-12-13T21:21:56;0.90;60.10
77039;DHT22;65970;50.476;4.840;2022-12-13T21:26:56;0.90;59.10
77039;DHT22;65970;50.476;4.840;2022-12-13T21:31:57;0.90;58.20
77039;DHT22;65970;50.476;4.840;2022-12-13T21:36:57;0.90;58.90
77039;DHT22;65970;50.476;4.840;2022-12-13T21:41:58;0.90;59.40
77039;DHT22;65970;50.476;4.840;2022-12-13T21:46:58;0.90;58.80
77039;DHT22;65970;50.476;4.840;2022-12-13T21:51:59;0.90;58.90
77039;DHT22;65970;50.476;4.840;2022-12-13T21:56:59;0.90;59.40
77039;DHT22;65970;50.476;4.840;2022-12-13T22:02:05;0.90;59.30
77039;DHT22;65970;50.476;4.840;2022-12-13T22:07:06;0.80;58.40
77039;DHT22;65970;50.476;4.840;2022-12-13T22:12:30;0.90;58.50
77039;DHT22;65970;50.476;4.840;2022-12-13T22:17:31;0.80;59.30
77039;DHT22;65970;50.476;4.840;2022-12-13T22:22:32;0.80;59.30
77039;DHT22;65970;50.476;4.840;2022-12-13T22:27:33;0.90;57.70
77039;DHT22;65970;50.476;4.840;2022-12-13T22:32:33;0.80;58.20
77039;DHT22;65970;50.476;4.840;2022-12-13T22:37:34;0.90;57.70
77039;DHT22;65970;50.476;4.840;2022-12-13T22:42:34;0.90;58.00
77039;DHT22;65970;50.476;4.840;2022-12-13T22:47:35;0.90;57.70
77039;DHT22;65970;50.476;4.840;2022-12-13T22:52:35;0.90;57.60
77039;DHT22;65970;50.476;4.840;2022-12-13T22:57:36;0.90;57.70
77039;DHT22;65970;50.476;4.840;2022-12-13T23:02:36;0.90;57.50
77039;DHT22;65970;50.476;4.840;2022-12-13T23:07:37;0.90;56.80
77039;DHT22;65970;50.476;4.840;2022-12-13T23:12:37;0.90;56.80
77039;DHT22;65970;50.476;4.840;2022-12-13T23:17:38;0.90;56.40
77039;DHT22;65970;50.476;4.840;2022-12-13T23:22:38;0.90;56.40
77039;DHT22;65970;50.476;4.840;2022-12-13T23:27:39;0.90;56.80
77039;DHT22;65970;50.476;4.840;2022-12-13T23:32:39;1.00;56.20
77039;DHT22;65970;50.476;4.840;2022-12-13T23:37:40;0.90;56.20
77039;DHT22;65970;50.476;4.840;2022-12-13T23:42:40;0.90;56.30
77039;DHT22;65970;50.476;4.840;2022-12-13T23:47:41;1.00;58.50
77039;DHT22;65970;50.476;4.840;2022-12-13T23:52:41;1.00;59.50
77039;DHT22;65970;50.476;4.840;2022-12-13T23:57:42;1.10;59.20
